Time;durP1;ratioP1;P1;durP2;ratioP2;P2;SDS_P1;SDS_P2;PMS_P1;PMS_P2;Temp;Humidity;BMP_temperature;BMP_pressure;BME280_temperature;BME280_humidity;BME280_pressure;Samples;Min_cycle;Max_cycle;Signal;HPM_P1;HPM_P2
2023/07/21 00:00:53;;;;;;;;;;;22.50;47.90;;;;;;5048742;28;19944;-57
2023/07/21 00:03:20;;;;;;;;;;;22.50;47.90;;;;;;5031092;28;19936;-57
2023/07/21 00:05:47;;;;;;;;;;;22.50;47.90;;;;;;5057441;28;19928;-56
2023/07/21 00:08:16;;;;;;;;;;;22.50;47.90;;;;;;5049856;28;19932;-57
2023/07/21 00:10:43;;;;;;;;;;;22.50;47.90;;;;;;5050474;28;19937;-57
2023/07/21 00:13:11;;;;;;;;;;;22.50;47.90;;;;;;5031385;28;19924;-56
2023/07/21 00:15:38;;;;;;;;;;;22.50;47.90;;;;;;5050548;28;20019;-57
2023/07/21 00:18:04;;;;;;;;;;;22.50;47.90;;;;;;5029483;28;19931;-57
2023/07/21 00:20:32;;;;;;;;;;;22.50;47.90;;;;;;5032920;28;19971;-56
2023/07/21 00:22:59;;;;;;;;;;;22.50;47.90;;;;;;5030123;28;19925;-57
2023/07/21 00:25:27;;;;;;;;;;;22.50;47.90;;;;;;5049694;28;19928;-57
2023/07/21 00:27:54;;;;;;;;;;;22.50;47.90;;;;;;5049526;28;19991;-57
2023/07/21 00:30:22;;;;;;;;;;;22.50;47.90;;;;;;5051481;28;19940;-57
2023/07/21 00:32:48;;;;;;;;;;;22.50;47.90;;;;;;5052645;28;19979;-57
2023/07/21 00:35:15;;;;;;;;;;;22.50;47.90;;;;;;5023116;28;19929;-57
2023/07/21 00:37:42;;;;;;;;;;;22.40;47.80;;;;;;5027736;28;19925;-57
2023/07/21 00:40:15;;;;;;;;;;;22.50;47.90;;;;;;5044556;28;19933;-56
2023/07/21 00:42:43;;;;;;;;;;;22.50;47.90;;;;;;5051081;28;19924;-51
2023/07/21 00:45:13;;;;;;;;;;;22.50;47.90;;;;;;5029967;28;19928;-56
2023/07/21 00:47:40;;;;;;;;;;;22.50;47.90;;;;;;5046980;28;19943;-56
2023/07/21 00:50:07;;;;;;;;;;;22.40;47.80;;;;;;5042079;28;19944;-55
2023/07/21 00:52:34;;;;;;;;;;;22.50;47.90;;;;;;5028571;28;20019;-57
2023/07/21 00:55:01;;;;;;;;;;;22.40;47.70;;;;;;5045744;28;19929;-55
2023/07/21 00:57:27;;;;;;;;;;;22.40;47.70;;;;;;5041048;28;19925;-56
2023/07/21 00:59:56;;;;;;;;;;;22.40;47.70;;;;;;5031605;28;19932;-56
2023/07/21 01:02:22;;;;;;;;;;;22.40;47.70;;;;;;5030402;28;19925;-57
2023/07/21 01:07:18;;;;;;;;;;;22.40;47.70;;;;;;5102170;22;19927;-56
2023/07/21 01:09:45;;;;;;;;;;;22.40;47.70;;;;;;5105323;28;19993;-58
2023/07/21 01:12:13;;;;;;;;;;;22.40;47.60;;;;;;5092180;28;19931;-58
2023/07/21 01:14:39;;;;;;;;;;;22.40;47.60;;;;;;5085794;28;19923;-58
2023/07/21 01:17:08;;;;;;;;;;;22.40;47.60;;;;;;5100025;28;19924;-58
2023/07/21 01:19:36;;;;;;;;;;;22.40;47.60;;;;;;5085456;28;19919;-56
2023/07/21 01:22:03;;;;;;;;;;;22.40;47.60;;;;;;5086004;28;19931;-58
2023/07/21 01:24:32;;;;;;;;;;;22.40;47.60;;;;;;5104045;28;19924;-57
2023/07/21 01:27:01;;;;;;;;;;;22.40;47.50;;;;;;5105373;28;19924;-54
2023/07/21 01:29:28;;;;;;;;;;;22.40;47.50;;;;;;5107071;28;19928;-56
2023/07/21 01:31:55;;;;;;;;;;;22.40;47.50;;;;;;5083036;28;19935;-58
2023/07/21 01:34:21;;;;;;;;;;;22.40;47.50;;;;;;5103127;28;19939;-58
2023/07/21 01:36:48;;;;;;;;;;;22.40;47.50;;;;;;5091775;28;19931;-57
2023/07/21 01:39:15;;;;;;;;;;;22.40;47.40;;;;;;5087687;28;20067;-57
2023/07/21 01:41:42;;;;;;;;;;;22.40;47.50;;;;;;5105036;28;19935;-57
2023/07/21 01:44:10;;;;;;;;;;;22.40;47.40;;;;;;5107263;28;19946;-57
2023/07/21 01:46:37;;;;;;;;;;;22.40;47.40;;;;;;5090235;28;19935;-55
2023/07/21 01:49:04;;;;;;;;;;;22.40;47.40;;;;;;5105105;28;19920;-59
2023/07/21 01:51:31;;;;;;;;;;;22.40;47.40;;;;;;5103527;28;19928;-57
2023/07/21 01:54:00;;;;;;;;;;;22.40;47.40;;;;;;5083221;28;19985;-57
2023/07/21 01:56:30;;;;;;;;;;;22.40;47.40;;;;;;5098035;28;19924;-58
2023/07/21 01:58:57;;;;;;;;;;;22.40;47.40;;;;;;5080779;28;20327;-58
2023/07/21 02:01:25;;;;;;;;;;;22.40;47.40;;;;;;5106072;28;19924;-55
2023/07/21 02:03:52;;;;;;;;;;;22.40;47.40;;;;;;5099608;28;19932;-57
2023/07/21 02:06:19;;;;;;;;;;;22.40;47.40;;;;;;5100991;28;19997;-59
2023/07/21 02:08:46;;;;;;;;;;;22.40;47.40;;;;;;5105377;28;19924;-58
2023/07/21 02:11:13;;;;;;;;;;;22.40;47.40;;;;;;5103709;28;19938;-59
2023/07/21 02:13:39;;;;;;;;;;;22.40;47.40;;;;;;5086714;28;19977;-56
2023/07/21 02:16:07;;;;;;;;;;;22.40;47.40;;;;;;5083841;28;19932;-56
2023/07/21 02:18:35;;;;;;;;;;;22.40;47.40;;;;;;5106421;28;19924;-58
2023/07/21 02:21:03;;;;;;;;;;;22.40;47.40;;;;;;5088755;28;19959;-58
2023/07/21 02:23:30;;;;;;;;;;;22.40;47.40;;;;;;5086393;28;19963;-57
2023/07/21 02:25:57;;;;;;;;;;;22.40;47.40;;;;;;5098318;28;19924;-58
2023/07/21 02:28:24;;;;;;;;;;;22.40;47.50;;;;;;5080958;28;19973;-58
2023/07/21 02:30:57;;;;;;;;;;;22.40;47.50;;;;;;5097802;28;19977;-58
2023/07/21 02:33:24;;;;;;;;;;;22.40;47.50;;;;;;5107246;28;19928;-58
2023/07/21 02:35:52;;;;;;;;;;;22.40;47.50;;;;;;5104959;28;19931;-58
2023/07/21 02:38:19;;;;;;;;;;;22.40;47.50;;;;;;5088739;28;19924;-58
2023/07/21 02:40:46;;;;;;;;;;;22.40;47.50;;;;;;5088590;28;19931;-53
2023/07/21 02:43:13;;;;;;;;;;;22.40;47.60;;;;;;5107626;28;20319;-58
2023/07/21 02:45:40;;;;;;;;;;;22.40;47.60;;;;;;5084652;28;19999;-57
2023/07/21 02:48:07;;;;;;;;;;;22.40;47.60;;;;;;5092630;28;19972;-56
2023/07/21 02:50:34;;;;;;;;;;;22.30;47.50;;;;;;5090651;28;20291;-57
2023/07/21 02:53:02;;;;;;;;;;;22.30;47.40;;;;;;5085126;28;19974;-58
2023/07/21 02:55:29;;;;;;;;;;;22.30;47.40;;;;;;5089627;28;19938;-56
2023/07/21 02:57:56;;;;;;;;;;;22.30;47.40;;;;;;5088252;28;19924;-57
2023/07/21 03:00:23;;;;;;;;;;;22.30;47.40;;;;;;5093085;28;19931;-58
2023/07/21 03:02:49;;;;;;;;;;;22.30;47.40;;;;;;5106875;28;19927;-56
2023/07/21 03:05:16;;;;;;;;;;;22.30;47.40;;;;;;5102938;28;19997;-57
2023/07/21 03:07:43;;;;;;;;;;;22.30;47.40;;;;;;5092982;28;19930;-57
2023/07/21 03:10:12;;;;;;;;;;;22.30;47.40;;;;;;5107234;28;19923;-57
2023/07/21 03:12:39;;;;;;;;;;;22.30;47.40;;;;;;5103359;28;20014;-57
2023/07/21 03:15:06;;;;;;;;;;;22.30;47.40;;;;;;5110570;28;19928;-57
2023/07/21 03:17:33;;;;;;;;;;;22.30;47.40;;;;;;5094256;28;19991;-58
2023/07/21 03:20:00;;;;;;;;;;;22.30;47.40;;;;;;5109975;28;19967;-59
2023/07/21 03:22:26;;;;;;;;;;;22.30;47.40;;;;;;5105796;28;19931;-56
2023/07/21 03:24:53;;;;;;;;;;;22.30;47.40;;;;;;5105449;28;19932;-58
2023/07/21 03:27:21;;;;;;;;;;;22.30;47.40;;;;;;5094801;28;20332;-58
2023/07/21 03:29:51;;;;;;;;;;;22.30;47.40;;;;;;5110689;28;20199;-60
2023/07/21 03:32:18;;;;;;;;;;;22.30;47.40;;;;;;5084823;28;19969;-59
2023/07/21 03:34:48;;;;;;;;;;;22.30;47.40;;;;;;5096331;28;19924;-57
2023/07/21 03:37:15;;;;;;;;;;;22.30;47.50;;;;;;5078383;28;19935;-56
2023/07/21 03:39:44;;;;;;;;;;;22.30;47.40;;;;;;5091492;28;19932;-54
2023/07/21 03:42:11;;;;;;;;;;;22.30;47.40;;;;;;5095688;28;19930;-57
2023/07/21 03:44:39;;;;;;;;;;;22.30;47.40;;;;;;5094144;28;19924;-58
2023/07/21 03:47:06;;;;;;;;;;;22.30;47.50;;;;;;5110899;28;19973;-59
2023/07/21 03:49:35;;;;;;;;;;;22.30;47.50;;;;;;5109400;28;19923;-59
2023/07/21 03:52:01;;;;;;;;;;;22.30;47.50;;;;;;5109663;28;19931;-56
2023/07/21 03:54:29;;;;;;;;;;;22.30;47.50;;;;;;5104948;28;19924;-57
2023/07/21 03:56:55;;;;;;;;;;;22.30;47.50;;;;;;5109161;28;20011;-58
2023/07/21 03:59:22;;;;;;;;;;;22.30;47.50;;;;;;5108593;28;19935;-58
2023/07/21 04:01:50;;;;;;;;;;;22.30;47.50;;;;;;5092291;28;19924;-57
2023/07/21 04:04:17;;;;;;;;;;;22.30;47.50;;;;;;5090800;28;19935;-58
2023/07/21 04:06:44;;;;;;;;;;;22.30;47.50;;;;;;5104859;28;19931;-57
2023/07/21 04:09:13;;;;;;;;;;;22.30;47.50;;;;;;5091169;28;19919;-59
2023/07/21 04:11:39;;;;;;;;;;;22.30;47.50;;;;;;5083352;28;19946;-58
2023/07/21 04:14:06;;;;;;;;;;;22.30;48.10;;;;;;5093299;28;19927;-58
2023/07/21 04:16:34;;;;;;;;;;;22.30;47.60;;;;;;5109956;28;19934;-58
2023/07/21 04:19:02;;;;;;;;;;;22.30;47.60;;;;;;5091567;28;19923;-58
2023/07/21 04:21:28;;;;;;;;;;;22.30;47.60;;;;;;5090987;28;19924;-58
2023/07/21 04:23:56;;;;;;;;;;;22.30;48.20;;;;;;5088401;28;19927;-58
2023/07/21 04:26:22;;;;;;;;;;;22.30;47.60;;;;;;5087591;28;19928;-59
2023/07/21 04:28:49;;;;;;;;;;;22.30;47.70;;;;;;5108778;28;19920;-57
2023/07/21 04:31:22;;;;;;;;;;;22.30;47.70;;;;;;5106885;28;19928;-58
2023/07/21 04:33:49;;;;;;;;;;;22.30;47.70;;;;;;5093123;28;19931;-59
2023/07/21 04:36:18;;;;;;;;;;;22.30;47.70;;;;;;5087259;28;19928;-56
2023/07/21 04:38:44;;;;;;;;;;;22.20;47.70;;;;;;5091394;28;19931;-58
2023/07/21 04:41:12;;;;;;;;;;;22.30;47.80;;;;;;5089360;28;19935;-58
2023/07/21 04:43:39;;;;;;;;;;;22.30;47.80;;;;;;5098575;28;20162;-58
2023/07/21 04:46:06;;;;;;;;;;;22.30;47.80;;;;;;5108431;28;19927;-57
2023/07/21 04:48:33;;;;;;;;;;;22.30;47.90;;;;;;5106291;28;19923;-56
2023/07/21 04:50:59;;;;;;;;;;;22.30;47.90;;;;;;5089189;28;19973;-55
2023/07/21 04:53:28;;;;;;;;;;;22.30;47.90;;;;;;5109477;28;19932;-58
2023/07/21 04:55:55;;;;;;;;;;;22.30;47.90;;;;;;5106023;28;19924;-56
2023/07/21 04:58:22;;;;;;;;;;;22.30;47.90;;;;;;5087357;28;19928;-58
2023/07/21 05:00:49;;;;;;;;;;;22.30;47.90;;;;;;5099915;28;19926;-57
2023/07/21 05:03:16;;;;;;;;;;;22.30;47.90;;;;;;5100641;28;19932;-58
2023/07/21 05:05:43;;;;;;;;;;;22.20;48.50;;;;;;5088898;28;19932;-57
2023/07/21 05:08:10;;;;;;;;;;;22.30;48.00;;;;;;5091297;28;19928;-57
2023/07/21 05:10:38;;;;;;;;;;;22.30;48.00;;;;;;5100375;28;19923;-57
2023/07/21 05:13:06;;;;;;;;;;;22.20;47.90;;;;;;5106011;28;19924;-58
2023/07/21 05:15:35;;;;;;;;;;;22.30;48.00;;;;;;5090150;28;19993;-58
2023/07/21 05:18:01;;;;;;;;;;;22.20;48.00;;;;;;5093026;28;19943;-59
2023/07/21 05:20:28;;;;;;;;;;;22.30;48.00;;;;;;5104000;28;19924;-58
2023/07/21 05:22:55;;;;;;;;;;;22.20;48.00;;;;;;5093758;28;19931;-58
2023/07/21 05:25:22;;;;;;;;;;;22.30;48.00;;;;;;5107633;28;19932;-58
2023/07/21 05:27:50;;;;;;;;;;;22.20;48.00;;;;;;5086661;28;19932;-58
2023/07/21 05:30:17;;;;;;;;;;;22.20;48.00;;;;;;5087425;28;20244;-58
2023/07/21 05:32:44;;;;;;;;;;;22.30;48.00;;;;;;5106388;28;19927;-57
2023/07/21 05:35:13;;;;;;;;;;;22.30;48.00;;;;;;5092610;28;19934;-59
2023/07/21 05:37:40;;;;;;;;;;;22.20;48.00;;;;;;5087627;28;19920;-57
2023/07/21 05:40:09;;;;;;;;;;;22.20;48.00;;;;;;5066003;28;19924;-56
2023/07/21 05:42:36;;;;;;;;;;;22.30;48.20;;;;;;5087341;28;20086;-58
2023/07/21 05:45:06;;;;;;;;;;;22.20;48.00;;;;;;5089309;28;19924;-56
2023/07/21 05:47:33;;;;;;;;;;;22.30;48.10;;;;;;5082652;28;19977;-57
2023/07/21 05:50:01;;;;;;;;;;;22.20;48.00;;;;;;5085780;28;19969;-58
2023/07/21 05:52:27;;;;;;;;;;;22.30;48.10;;;;;;5091892;28;19976;-57
2023/07/21 05:54:54;;;;;;;;;;;22.30;48.10;;;;;;5083881;28;19924;-55
2023/07/21 05:57:21;;;;;;;;;;;22.30;48.10;;;;;;5103802;28;19928;-58
2023/07/21 05:59:48;;;;;;;;;;;22.30;48.10;;;;;;5087094;28;19940;-58
2023/07/21 06:02:16;;;;;;;;;;;22.30;48.20;;;;;;5082683;28;19938;-57
2023/07/21 06:04:43;;;;;;;;;;;22.30;48.20;;;;;;5085153;28;19985;-56
2023/07/21 06:07:10;;;;;;;;;;;22.30;48.10;;;;;;5102741;28;19923;-57
2023/07/21 06:09:38;;;;;;;;;;;22.30;48.10;;;;;;5093164;28;19928;-56
2023/07/21 06:12:05;;;;;;;;;;;22.30;48.10;;;;;;5087452;28;19924;-58
2023/07/21 06:14:32;;;;;;;;;;;22.30;48.20;;;;;;5091167;28;20295;-57
2023/07/21 06:16:59;;;;;;;;;;;22.30;48.20;;;;;;5092268;28;19923;-57
2023/07/21 06:19:27;;;;;;;;;;;22.30;48.10;;;;;;5112738;28;19924;-58
2023/07/21 06:21:54;;;;;;;;;;;22.30;48.20;;;;;;5107809;28;19931;-58
2023/07/21 06:24:21;;;;;;;;;;;22.30;48.20;;;;;;5086651;28;19939;-59
2023/07/21 06:26:48;;;;;;;;;;;22.30;48.20;;;;;;5091407;28;19935;-59
2023/07/21 06:29:15;;;;;;;;;;;22.30;48.20;;;;;;5086775;28;19927;-58
2023/07/21 06:31:42;;;;;;;;;;;22.30;48.20;;;;;;5111917;28;19923;-58
2023/07/21 06:34:08;;;;;;;;;;;22.30;48.30;;;;;;5105982;28;19928;-58
2023/07/21 06:36:37;;;;;;;;;;;22.30;48.30;;;;;;5109675;28;19924;-58
2023/07/21 06:39:04;;;;;;;;;;;22.30;48.30;;;;;;5103493;28;19977;-58
2023/07/21 06:41:31;;;;;;;;;;;22.30;48.30;;;;;;5090530;28;19971;-58
2023/07/21 06:43:58;;;;;;;;;;;22.30;48.30;;;;;;5088399;28;19932;-58
2023/07/21 06:46:24;;;;;;;;;;;22.30;48.30;;;;;;5102528;28;20131;-58
2023/07/21 06:48:51;;;;;;;;;;;22.40;48.30;;;;;;5102033;28;19935;-59
2023/07/21 06:51:18;;;;;;;;;;;22.40;48.30;;;;;;5084591;28;19947;-59
2023/07/21 06:53:47;;;;;;;;;;;22.40;48.30;;;;;;5085580;28;19931;-57
2023/07/21 06:56:14;;;;;;;;;;;22.40;48.30;;;;;;5093162;28;19960;-59
2023/07/21 06:58:42;;;;;;;;;;;22.40;48.30;;;;;;5106343;28;19950;-58
2023/07/21 07:01:09;;;;;;;;;;;22.40;48.30;;;;;;5102424;28;19946;-56
2023/07/21 07:03:36;;;;;;;;;;;22.40;48.40;;;;;;5106314;28;19966;-59
2023/07/21 07:06:02;;;;;;;;;;;22.40;48.30;;;;;;5086480;28;19958;-57
2023/07/21 07:08:29;;;;;;;;;;;22.40;48.30;;;;;;5109036;28;19927;-57
2023/07/21 07:10:57;;;;;;;;;;;22.40;48.40;;;;;;5101628;28;19928;-58
2023/07/21 07:13:24;;;;;;;;;;;22.40;48.40;;;;;;5107144;28;19966;-57
2023/07/21 07:15:51;;;;;;;;;;;22.40;48.40;;;;;;5107903;28;19931;-57
2023/07/21 07:18:18;;;;;;;;;;;22.40;48.40;;;;;;5098233;28;19935;-57
2023/07/21 07:20:48;;;;;;;;;;;22.40;48.40;;;;;;5089196;28;19977;-55
2023/07/21 07:23:15;;;;;;;;;;;22.40;48.40;;;;;;5088702;28;19953;-59
2023/07/21 07:25:46;;;;;;;;;;;22.40;48.40;;;;;;5104650;28;19991;-57
2023/07/21 07:28:14;;;;;;;;;;;22.40;48.30;;;;;;5110047;27;19931;-59
2023/07/21 07:30:41;;;;;;;;;;;22.50;48.40;;;;;;5084249;28;19925;-60
2023/07/21 07:33:08;;;;;;;;;;;22.40;48.30;;;;;;5106974;28;19924;-56
2023/07/21 07:35:35;;;;;;;;;;;22.50;48.40;;;;;;5108055;28;19931;-60
2023/07/21 07:38:01;;;;;;;;;;;22.50;48.40;;;;;;5091701;28;19959;-59
2023/07/21 07:40:28;;;;;;;;;;;22.50;48.30;;;;;;5085697;28;19924;-57
2023/07/21 07:42:55;;;;;;;;;;;22.50;48.30;;;;;;5097703;28;20224;-59
2023/07/21 07:45:24;;;;;;;;;;;22.50;48.30;;;;;;5109053;27;19946;-57
2023/07/21 07:47:52;;;;;;;;;;;22.50;48.30;;;;;;5108639;28;19943;-57
2023/07/21 07:50:20;;;;;;;;;;;22.50;48.30;;;;;;5092739;28;19923;-59
2023/07/21 07:52:47;;;;;;;;;;;22.50;48.30;;;;;;5108127;28;19924;-59
2023/07/21 07:55:15;;;;;;;;;;;22.50;48.30;;;;;;5088661;28;19924;-58
2023/07/21 07:57:42;;;;;;;;;;;22.50;48.30;;;;;;5091135;28;19924;-57
2023/07/21 08:00:10;;;;;;;;;;;22.50;48.20;;;;;;5090710;28;19931;-57
2023/07/21 08:02:38;;;;;;;;;;;22.50;48.20;;;;;;5087136;28;19924;-58
2023/07/21 08:05:05;;;;;;;;;;;22.40;48.00;;;;;;5107573;28;20368;-59
2023/07/21 08:07:32;;;;;;;;;;;22.40;48.00;;;;;;5086089;28;19924;-57
2023/07/21 08:10:00;;;;;;;;;;;22.40;48.10;;;;;;5092042;28;19928;-58
2023/07/21 08:12:27;;;;;;;;;;;22.40;48.10;;;;;;5089388;28;19963;-59
2023/07/21 08:14:54;;;;;;;;;;;22.40;48.20;;;;;;5086271;28;19927;-57
2023/07/21 08:17:21;;;;;;;;;;;22.40;48.30;;;;;;5105721;28;19928;-59
2023/07/21 08:19:49;;;;;;;;;;;22.40;48.30;;;;;;5105974;28;19930;-58
2023/07/21 08:22:16;;;;;;;;;;;22.40;48.30;;;;;;5104082;28;20019;-56
2023/07/21 08:24:43;;;;;;;;;;;22.40;48.30;;;;;;5089165;28;20160;-56
2023/07/21 08:27:10;;;;;;;;;;;22.40;48.40;;;;;;5085482;28;19928;-60
2023/07/21 08:29:37;;;;;;;;;;;22.40;48.40;;;;;;5081956;28;19925;-58
2023/07/21 08:32:04;;;;;;;;;;;22.40;48.40;;;;;;5090692;28;20290;-56
2023/07/21 08:34:30;;;;;;;;;;;22.40;48.40;;;;;;5108058;27;19932;-58
2023/07/21 08:36:59;;;;;;;;;;;22.40;48.40;;;;;;5089722;28;19924;-59
2023/07/21 08:39:26;;;;;;;;;;;22.40;48.40;;;;;;5107384;28;19935;-56
2023/07/21 08:41:52;;;;;;;;;;;22.50;48.50;;;;;;5087938;28;19959;-55
2023/07/21 08:44:20;;;;;;;;;;;22.40;48.40;;;;;;5103783;28;19931;-57
2023/07/21 08:46:46;;;;;;;;;;;22.50;48.50;;;;;;5107438;28;20054;-58
2023/07/21 08:49:13;;;;;;;;;;;22.50;48.50;;;;;;5084940;28;19924;-57
2023/07/21 08:51:40;;;;;;;;;;;22.50;48.50;;;;;;5088441;28;19946;-59
2023/07/21 08:54:09;;;;;;;;;;;22.50;48.50;;;;;;5083187;28;19924;-58
2023/07/21 08:56:36;;;;;;;;;;;22.50;48.50;;;;;;5075999;28;19927;-58
2023/07/21 08:59:03;;;;;;;;;;;22.50;48.50;;;;;;5078318;28;19932;-58
2023/07/21 09:01:30;;;;;;;;;;;22.50;48.50;;;;;;5104820;28;19969;-55
2023/07/21 09:03:57;;;;;;;;;;;22.50;48.50;;;;;;5090855;28;19924;-57
2023/07/21 09:06:23;;;;;;;;;;;22.50;48.50;;;;;;5090173;28;20292;-58
2023/07/21 09:08:50;;;;;;;;;;;22.60;48.60;;;;;;5101364;28;19924;-58
2023/07/21 09:11:18;;;;;;;;;;;22.50;48.50;;;;;;5101335;28;19924;-57
2023/07/21 09:13:51;;;;;;;;;;;22.50;48.50;;;;;;5103660;28;19927;-57
2023/07/21 09:16:19;;;;;;;;;;;22.50;48.50;;;;;;5083142;28;19924;-57
2023/07/21 09:18:46;;;;;;;;;;;22.60;48.60;;;;;;5105774;28;19931;-55
2023/07/21 09:21:17;;;;;;;;;;;22.60;48.60;;;;;;5109128;28;19930;-58
2023/07/21 09:23:43;;;;;;;;;;;22.60;48.50;;;;;;5086266;28;19974;-56
2023/07/21 09:26:10;;;;;;;;;;;22.60;48.50;;;;;;5086345;28;19923;-58
2023/07/21 09:28:41;;;;;;;;;;;22.60;48.50;;;;;;5068964;28;19924;-55
2023/07/21 09:31:08;;;;;;;;;;;22.60;48.50;;;;;;5106296;28;19924;-58
2023/07/21 09:33:37;;;;;;;;;;;22.60;48.40;;;;;;5068332;28;19923;-59
2023/07/21 09:36:08;;;;;;;;;;;22.60;48.40;;;;;;5087355;28;19924;-60
2023/07/21 09:38:35;;;;;;;;;;;22.60;48.40;;;;;;5087520;28;20254;-58
2023/07/21 09:41:02;;;;;;;;;;;22.60;48.40;;;;;;5106638;28;19934;-58
2023/07/21 09:43:29;;;;;;;;;;;22.60;48.30;;;;;;5087251;28;19924;-55
2023/07/21 09:45:58;;;;;;;;;;;22.60;48.30;;;;;;5075502;28;19928;-57
2023/07/21 09:48:25;;;;;;;;;;;22.60;48.30;;;;;;5086963;28;20035;-58
2023/07/21 09:50:52;;;;;;;;;;;22.60;48.30;;;;;;5084714;28;19928;-58
2023/07/21 09:53:20;;;;;;;;;;;22.60;48.20;;;;;;5097923;28;19972;-56
2023/07/21 09:55:46;;;;;;;;;;;22.60;48.20;;;;;;5102513;28;19923;-57
2023/07/21 09:58:13;;;;;;;;;;;22.60;48.20;;;;;;5086325;28;19932;-58
2023/07/21 10:00:41;;;;;;;;;;;22.60;48.10;;;;;;5103404;28;19924;-58
2023/07/21 10:03:09;;;;;;;;;;;22.60;48.10;;;;;;5081000;28;20023;-54
2023/07/21 10:05:37;;;;;;;;;;;22.70;48.20;;;;;;5088915;28;20014;-57
2023/07/21 10:08:04;;;;;;;;;;;22.70;48.00;;;;;;5084608;28;20027;-56
2023/07/21 10:10:31;;;;;;;;;;;22.70;47.90;;;;;;5092488;28;19932;-57
2023/07/21 10:12:58;;;;;;;;;;;22.70;48.00;;;;;;5082461;28;19924;-58
2023/07/21 10:15:28;;;;;;;;;;;22.60;47.90;;;;;;5082081;28;19924;-58
2023/07/21 10:17:56;;;;;;;;;;;22.70;48.00;;;;;;5106929;28;19928;-56
2023/07/21 10:20:38;;;;;;;;;;;22.70;48.00;;;;;;5093247;28;19928;-55
2023/07/21 10:23:05;;;;;;;;;;;22.70;48.00;;;;;;5083771;28;19955;-58
2023/07/21 10:25:45;;;;;;;;;;;22.70;47.90;;;;;;5103542;28;20010;-58
2023/07/21 10:28:12;;;;;;;;;;;22.70;48.00;;;;;;5085421;28;20300;-58
2023/07/21 10:30:39;;;;;;;;;;;22.70;48.00;;;;;;5081131;28;19983;-57
2023/07/21 10:33:12;;;;;;;;;;;22.70;48.00;;;;;;5089709;28;19924;-56
2023/07/21 10:35:41;;;;;;;;;;;22.70;48.00;;;;;;5084852;28;19977;-55
2023/07/21 10:38:24;;;;;;;;;;;22.70;48.00;;;;;;5080293;28;19928;-57
2023/07/21 10:40:54;;;;;;;;;;;22.70;48.00;;;;;;5103472;28;19923;-57
2023/07/21 10:43:21;;;;;;;;;;;22.70;48.00;;;;;;5092610;28;19933;-58
2023/07/21 10:45:50;;;;;;;;;;;22.70;48.00;;;;;;5092328;28;19945;-56
2023/07/21 10:48:17;;;;;;;;;;;22.70;48.00;;;;;;5104037;28;19950;-57
2023/07/21 10:50:51;;;;;;;;;;;22.70;48.00;;;;;;5084187;28;19946;-58
2023/07/21 10:53:18;;;;;;;;;;;22.70;48.00;;;;;;5079679;28;19928;-58
2023/07/21 10:55:45;;;;;;;;;;;22.70;47.90;;;;;;5108833;28;19985;-56
2023/07/21 10:58:12;;;;;;;;;;;22.70;47.90;;;;;;5101853;28;19923;-57
2023/07/21 11:00:46;;;;;;;;;;;22.70;47.80;;;;;;5105567;28;19923;-58
2023/07/21 11:03:13;;;;;;;;;;;22.70;47.80;;;;;;5090983;28;19927;-57
2023/07/21 11:05:39;;;;;;;;;;;22.70;47.70;;;;;;5110313;28;19923;-58
2023/07/21 11:08:09;;;;;;;;;;;22.80;47.70;;;;;;5086862;28;20046;-57
2023/07/21 11:10:36;;;;;;;;;;;22.80;47.80;;;;;;5099298;28;19923;-58
2023/07/21 11:13:03;;;;;;;;;;;22.70;47.70;;;;;;5103284;28;20061;-58
2023/07/21 11:15:30;;;;;;;;;;;22.70;47.60;;;;;;5090961;28;19924;-57
2023/07/21 11:17:57;;;;;;;;;;;22.80;47.70;;;;;;5091726;28;20322;-58
2023/07/21 11:20:24;;;;;;;;;;;22.80;47.60;;;;;;5089035;28;19982;-56
2023/07/21 11:22:51;;;;;;;;;;;22.80;47.50;;;;;;5097585;28;19924;-57
2023/07/21 11:25:20;;;;;;;;;;;22.70;47.40;;;;;;5089487;28;20014;-56
2023/07/21 11:27:48;;;;;;;;;;;22.80;47.40;;;;;;5086047;28;19924;-55
2023/07/21 11:30:16;;;;;;;;;;;22.80;47.50;;;;;;5105318;28;19927;-56
2023/07/21 11:32:43;;;;;;;;;;;22.70;47.40;;;;;;5086753;28;20106;-55
2023/07/21 11:35:10;;;;;;;;;;;22.80;47.40;;;;;;5105743;28;19924;-57
2023/07/21 11:37:37;;;;;;;;;;;22.70;47.30;;;;;;5099522;28;19961;-57
2023/07/21 11:40:07;;;;;;;;;;;22.80;47.30;;;;;;5104981;28;19928;-57
2023/07/21 11:42:46;;;;;;;;;;;22.80;47.10;;;;;;5106775;28;19935;-58
2023/07/21 11:45:32;;;;;;;;;;;22.80;47.30;;;;;;5091150;28;19924;-58
2023/07/21 11:47:59;;;;;;;;;;;22.80;47.30;;;;;;5095794;28;19943;-54
2023/07/21 11:50:28;;;;;;;;;;;22.80;47.40;;;;;;5101136;28;19928;-57
2023/07/21 11:52:54;;;;;;;;;;;22.80;47.30;;;;;;5101516;28;19931;-57
2023/07/21 11:55:21;;;;;;;;;;;22.80;47.30;;;;;;5107035;28;19924;-57
2023/07/21 11:57:51;;;;;;;;;;;22.80;47.30;;;;;;5095705;28;19928;-57
2023/07/21 12:00:18;;;;;;;;;;;22.80;47.20;;;;;;5103319;28;19924;-57
2023/07/21 12:02:44;;;;;;;;;;;22.80;47.10;;;;;;5080288;28;20026;-54
2023/07/21 12:05:11;;;;;;;;;;;22.80;47.10;;;;;;5099382;28;19932;-58
2023/07/21 12:07:38;;;;;;;;;;;22.80;47.10;;;;;;5108900;28;19980;-57
2023/07/21 12:10:06;;;;;;;;;;;22.80;47.10;;;;;;5075541;28;19967;-58
2023/07/21 12:12:33;;;;;;;;;;;22.80;47.00;;;;;;5093352;28;19978;-57
2023/07/21 12:15:02;;;;;;;;;;;22.80;47.00;;;;;;5083596;28;19978;-58
2023/07/21 12:17:29;;;;;;;;;;;22.80;46.90;;;;;;5101328;28;19923;-57
2023/07/21 12:19:56;;;;;;;;;;;22.80;46.90;;;;;;5110638;28;20010;-57
2023/07/21 12:22:25;;;;;;;;;;;22.80;47.00;;;;;;5100130;28;19925;-55
2023/07/21 12:24:51;;;;;;;;;;;22.80;46.80;;;;;;5095691;28;19953;-56
2023/07/21 12:27:18;;;;;;;;;;;22.80;46.80;;;;;;5098552;28;19928;-55
2023/07/21 12:29:45;;;;;;;;;;;22.80;46.50;;;;;;5099028;28;19924;-57
2023/07/21 12:32:13;;;;;;;;;;;22.80;46.50;;;;;;5092993;28;19932;-57
2023/07/21 12:34:40;;;;;;;;;;;22.80;46.60;;;;;;5080578;28;19977;-57
2023/07/21 12:37:07;;;;;;;;;;;22.80;46.50;;;;;;5085045;28;20004;-57
2023/07/21 12:39:34;;;;;;;;;;;22.80;46.50;;;;;;5099192;28;19963;-57
2023/07/21 12:42:01;;;;;;;;;;;22.80;46.50;;;;;;5099129;28;19932;-58
2023/07/21 12:44:27;;;;;;;;;;;22.80;46.40;;;;;;5105053;28;20015;-56
2023/07/21 12:46:54;;;;;;;;;;;22.80;46.50;;;;;;5093151;28;20346;-57
2023/07/21 12:49:22;;;;;;;;;;;22.80;46.40;;;;;;5081655;28;20053;-55
2023/07/21 12:51:50;;;;;;;;;;;22.80;46.40;;;;;;5085132;28;19935;-57
2023/07/21 12:54:17;;;;;;;;;;;22.80;46.40;;;;;;5107908;28;19962;-57
2023/07/21 12:56:44;;;;;;;;;;;22.90;46.20;;;;;;5103370;28;19976;-56
2023/07/21 12:59:10;;;;;;;;;;;22.80;46.30;;;;;;5090563;28;19924;-58
2023/07/21 13:01:37;;;;;;;;;;;22.80;46.30;;;;;;5063791;28;20022;-57
2023/07/21 13:04:04;;;;;;;;;;;22.80;46.00;;;;;;5083013;28;19931;-56
2023/07/21 13:06:32;;;;;;;;;;;22.80;46.10;;;;;;5092739;28;19924;-58
2023/07/21 13:08:59;;;;;;;;;;;22.90;46.30;;;;;;5096872;28;19932;-56
2023/07/21 13:11:26;;;;;;;;;;;22.80;46.20;;;;;;5092846;28;19927;-55
2023/07/21 13:13:53;;;;;;;;;;;22.90;46.30;;;;;;5102342;28;19986;-58
2023/07/21 13:16:20;;;;;;;;;;;22.80;46.30;;;;;;5091912;28;19928;-58
2023/07/21 13:18:46;;;;;;;;;;;22.90;46.40;;;;;;5104209;28;19978;-56
2023/07/21 13:21:13;;;;;;;;;;;22.90;46.40;;;;;;5108454;28;19927;-58
2023/07/21 13:23:41;;;;;;;;;;;22.90;46.40;;;;;;5106618;28;19927;-55
2023/07/21 13:26:08;;;;;;;;;;;22.90;46.30;;;;;;5099782;28;19928;-57
2023/07/21 13:28:35;;;;;;;;;;;22.90;46.00;;;;;;5080915;28;19955;-58
2023/07/21 13:31:02;;;;;;;;;;;22.90;46.10;;;;;;5102685;28;19924;-59
2023/07/21 13:33:28;;;;;;;;;;;22.90;46.10;;;;;;5103981;28;19939;-58
2023/07/21 13:35:55;;;;;;;;;;;22.90;46.10;;;;;;5082680;28;19928;-57
2023/07/21 13:38:22;;;;;;;;;;;22.90;46.00;;;;;;5082147;28;19924;-56
2023/07/21 13:40:50;;;;;;;;;;;22.90;46.10;;;;;;5089004;28;19928;-57
2023/07/21 13:43:17;;;;;;;;;;;22.90;45.90;;;;;;5078763;28;19924;-58
2023/07/21 13:45:43;;;;;;;;;;;22.90;45.80;;;;;;5108021;28;20223;-58
2023/07/21 13:48:10;;;;;;;;;;;22.90;45.70;;;;;;5080836;28;19932;-57
2023/07/21 13:50:37;;;;;;;;;;;22.90;45.80;;;;;;5092226;28;19931;-58
2023/07/21 13:53:04;;;;;;;;;;;22.80;45.40;;;;;;5099640;28;19938;-57
2023/07/21 13:55:31;;;;;;;;;;;22.90;45.50;;;;;;5106357;28;19930;-59
2023/07/21 13:57:59;;;;;;;;;;;22.80;45.50;;;;;;5084456;28;19932;-59
2023/07/21 14:00:26;;;;;;;;;;;22.90;45.70;;;;;;5085360;28;19928;-57
2023/07/21 14:02:53;;;;;;;;;;;22.90;45.30;;;;;;5086984;28;19928;-58
2023/07/21 14:05:20;;;;;;;;;;;22.90;45.40;;;;;;5078870;28;19924;-58
2023/07/21 14:07:48;;;;;;;;;;;22.90;45.60;;;;;;5079196;28;19932;-57
2023/07/21 14:10:15;;;;;;;;;;;22.90;45.70;;;;;;5082365;28;19920;-57
2023/07/21 14:12:42;;;;;;;;;;;22.90;46.20;;;;;;5103716;28;19956;-58
2023/07/21 14:15:12;;;;;;;;;;;22.90;45.60;;;;;;5106963;28;19927;-54
2023/07/21 14:17:39;;;;;;;;;;;22.90;45.60;;;;;;5069006;28;19927;-57
2023/07/21 14:20:08;;;;;;;;;;;22.90;45.70;;;;;;5087664;28;19928;-56